createdAt,value
2023-02-03T00:02:24.841Z,19.48
2023-02-03T00:07:27.734Z,21.13
2023-02-03T00:12:30.331Z,19.63
2023-02-03T00:17:33.142Z,21.35
2023-02-03T00:22:35.704Z,21.45
2023-02-03T00:27:38.393Z,21.42
2023-02-03T00:32:42.146Z,21.42
2023-02-03T00:37:44.846Z,22.25
2023-02-03T00:42:47.562Z,21.08
2023-02-03T00:47:50.102Z,21.90
2023-02-03T00:52:52.762Z,21.55
2023-02-03T00:57:55.433Z,20.95
2023-02-03T01:02:58.117Z,22.50
2023-02-03T01:08:01.719Z,20.85
2023-02-03T01:13:04.402Z,21.55
2023-02-03T01:18:07.099Z,23.48
2023-02-03T01:23:09.716Z,22.88
2023-02-03T01:28:12.452Z,23.35
2023-02-03T01:33:15.151Z,23.75
2023-02-03T01:38:17.794Z,22.70
2023-02-03T01:43:31.605Z,21.80
2023-02-03T01:48:36.111Z,24.00
2023-02-03T01:53:39.497Z,23.63
2023-02-03T01:58:43.593Z,23.02
2023-02-03T02:03:51.520Z,24.00
2023-02-03T02:08:57.867Z,23.67
2023-02-03T02:14:02.889Z,24.00
2023-02-03T02:19:52.009Z,23.13
2023-02-03T02:25:21.401Z,23.70
2023-02-03T02:30:43.231Z,22.50
2023-02-03T02:35:46.287Z,22.52
2023-02-03T02:41:13.323Z,21.80
2023-02-03T02:46:39.652Z,23.73
2023-02-03T02:51:45.398Z,23.25
2023-02-03T02:56:53.694Z,23.85
2023-02-03T03:01:56.381Z,21.45
2023-02-03T03:07:09.272Z,23.20
2023-02-03T03:12:21.145Z,24.48
2023-02-03T03:17:31.410Z,22.85
2023-02-03T03:22:40.354Z,21.55
2023-02-03T03:27:49.914Z,23.35
2023-02-03T03:32:53.108Z,22.55
2023-02-03T03:38:00.867Z,21.77
2023-02-03T03:43:05.544Z,21.27
2023-02-03T03:48:24.073Z,22.88
2023-02-03T03:53:28.923Z,22.02
2023-02-03T03:58:32.634Z,21.92
2023-02-03T04:03:49.455Z,22.35
2023-02-03T04:08:52.082Z,21.77
2023-02-03T04:13:54.589Z,22.63
2023-02-03T04:18:57.749Z,20.73
2023-02-03T04:24:00.280Z,21.98
2023-02-03T04:29:03.103Z,22.02
2023-02-03T04:34:06.351Z,22.48
2023-02-03T04:39:09.000Z,22.85
2023-02-03T04:44:11.590Z,22.92
2023-02-03T04:49:14.185Z,20.67
2023-02-03T04:54:17.007Z,21.50
2023-02-03T04:59:19.601Z,20.38
2023-02-03T05:04:22.417Z,20.85
2023-02-03T05:09:26.008Z,22.58
2023-02-03T05:14:28.581Z,21.42
2023-02-03T05:19:31.196Z,19.80
2023-02-03T05:24:33.758Z,20.58
2023-02-03T05:29:36.294Z,21.98
2023-02-03T05:34:41.265Z,18.30
2023-02-03T05:39:44.768Z,20.30
2023-02-03T05:44:47.286Z,17.80
2023-02-03T05:49:49.878Z,19.33
2023-02-03T05:54:52.423Z,18.60
2023-02-03T05:59:54.986Z,17.10
2023-02-03T06:04:57.613Z,18.35
2023-02-03T06:10:00.168Z,18.45
2023-02-03T06:15:03.030Z,19.33
2023-02-03T06:20:08.263Z,18.73
2023-02-03T06:25:13.027Z,18.67
2023-02-03T06:30:15.995Z,19.17
2023-02-03T06:35:19.045Z,19.55
2023-02-03T06:40:21.642Z,20.15
2023-02-03T06:45:25.100Z,19.98
2023-02-03T06:50:28.022Z,20.20
2023-02-03T06:55:30.777Z,20.33
2023-02-03T07:00:33.347Z,20.25
2023-02-03T07:05:36.960Z,19.08
2023-02-03T07:10:39.687Z,21.83
2023-02-03T07:15:42.343Z,21.67
2023-02-03T07:20:44.876Z,21.13
2023-02-03T07:25:47.541Z,21.20
2023-02-03T07:30:50.275Z,17.73
2023-02-03T07:35:57.319Z,16.55
2023-02-03T07:40:59.970Z,18.33
2023-02-03T07:46:02.795Z,18.80
2023-02-03T07:51:08.248Z,18.45
2023-02-03T07:56:12.126Z,15.57
2023-02-03T08:01:16.941Z,19.42
2023-02-03T08:06:19.617Z,16.70
2023-02-03T08:11:22.260Z,18.15
2023-02-03T08:16:24.849Z,18.35
2023-02-03T08:21:28.186Z,18.02
2023-02-03T08:26:30.983Z,16.88
2023-02-03T08:31:33.889Z,17.10
2023-02-03T08:36:40.033Z,17.42
2023-02-03T08:41:42.612Z,18.42
2023-02-03T08:46:45.661Z,16.38
2023-02-03T08:51:49.169Z,16.38
2023-02-03T08:56:52.321Z,18.05
2023-02-03T09:01:55.099Z,18.67
2023-02-03T09:06:57.779Z,19.05
2023-02-03T09:12:05.722Z,18.83
2023-02-03T09:17:09.467Z,20.13
2023-02-03T09:22:12.258Z,17.33
2023-02-03T09:27:15.118Z,19.55
2023-02-03T09:32:17.817Z,16.55
2023-02-03T09:37:20.386Z,16.80
2023-02-03T09:42:51.589Z,16.55
2023-02-03T09:48:00.509Z,16.20
2023-02-03T09:53:08.758Z,15.60
2023-02-03T09:58:14.685Z,15.50
2023-02-03T10:03:39.903Z,15.55
2023-02-03T10:08:48.529Z,14.50
2023-02-03T10:14:09.741Z,15.60
2023-02-03T10:19:20.787Z,15.37
2023-02-03T10:24:34.833Z,15.07
2023-02-03T10:29:43.430Z,13.52
2023-02-03T10:34:47.901Z,14.07
2023-02-03T10:39:52.530Z,13.07
2023-02-03T10:45:01.435Z,13.32
2023-02-03T10:50:35.565Z,13.65
2023-02-03T11:05:43.512Z,13.02
2023-02-03T11:10:47.024Z,13.35
2023-02-03T11:16:05.038Z,13.63
2023-02-03T11:21:10.856Z,13.90
2023-02-03T11:26:15.750Z,13.90
2023-02-03T11:31:24.975Z,14.10
2023-02-03T11:36:30.171Z,13.68
2023-02-03T11:41:39.133Z,13.70
2023-02-03T11:46:42.786Z,12.32
2023-02-03T11:52:01.751Z,12.48
2023-02-03T11:57:25.091Z,12.85
2023-02-03T12:03:04.964Z,13.15
2023-02-03T12:08:40.274Z,11.73
2023-02-03T12:14:21.058Z,10.95
2023-02-03T12:19:39.226Z,10.95
2023-02-03T12:25:10.434Z,14.93
2023-02-03T12:30:21.884Z,26.93
2023-02-03T12:35:32.538Z,13.25
2023-02-03T12:40:43.310Z,11.25
2023-02-03T12:45:54.580Z,10.02
2023-02-03T12:51:02.576Z,10.27
2023-02-03T12:56:12.470Z,10.07
2023-02-03T13:01:23.508Z,11.60
2023-02-03T13:06:39.480Z,10.20
2023-02-03T13:11:56.789Z,11.10
2023-02-03T13:17:12.705Z,11.40
2023-02-03T13:22:17.424Z,10.85
2023-02-03T13:27:37.390Z,11.77
2023-02-03T13:32:50.476Z,11.85
2023-02-03T13:38:05.420Z,10.43
2023-02-03T13:43:35.749Z,11.38
2023-02-03T13:48:46.146Z,14.10
2023-02-03T13:53:50.979Z,13.70
2023-02-03T13:59:28.822Z,11.70
2023-02-03T14:04:35.000Z,11.25
2023-02-03T14:09:38.995Z,11.80
2023-02-03T14:14:44.541Z,11.18
2023-02-03T14:19:50.607Z,11.77
2023-02-03T14:24:56.613Z,12.60
2023-02-03T14:30:17.499Z,11.63
2023-02-03T14:35:30.274Z,11.95
2023-02-03T14:40:50.868Z,16.77
2023-02-03T14:46:10.287Z,16.27
2023-02-03T14:51:57.789Z,15.60
2023-02-03T14:57:31.351Z,12.93
2023-02-03T15:02:34.765Z,14.50
2023-02-03T15:07:46.671Z,13.05
2023-02-03T15:12:54.067Z,11.15
2023-02-03T15:17:59.786Z,13.73
2023-02-03T15:23:03.395Z,12.90
2023-02-03T15:28:21.437Z,12.85
2023-02-03T15:33:24.278Z,13.02
2023-02-03T15:38:31.526Z,11.75
2023-02-03T15:43:43.533Z,13.38
2023-02-03T15:48:51.703Z,11.90
2023-02-03T15:54:02.642Z,12.30
2023-02-03T15:59:06.589Z,11.40
2023-02-03T16:04:11.922Z,11.30
2023-02-03T16:09:34.565Z,9.98
2023-02-03T16:14:37.380Z,10.07
2023-02-03T16:19:41.281Z,10.30
2023-02-03T16:24:46.170Z,10.65
2023-02-03T16:30:07.518Z,10.23
2023-02-03T16:35:29.351Z,9.65
2023-02-03T16:40:50.593Z,10.15
2023-02-03T16:46:16.125Z,9.50
2023-02-03T16:51:18.776Z,8.52
2023-02-03T16:56:21.434Z,8.18
2023-02-03T17:01:24.653Z,8.98
2023-02-03T17:06:27.364Z,8.73
2023-02-03T17:11:30.271Z,9.32
2023-02-03T17:16:33.608Z,8.68
2023-02-03T17:21:36.267Z,18.95
2023-02-03T17:26:38.824Z,16.75
2023-02-03T17:31:41.677Z,10.05
2023-02-03T17:36:47.060Z,8.48
2023-02-03T17:57:51.422Z,6.22
2023-02-03T18:02:54.913Z,6.68
2023-02-03T18:08:00.865Z,6.53
2023-02-03T18:13:08.827Z,23.83
2023-02-03T18:18:13.499Z,8.55
2023-02-03T18:23:16.037Z,7.68
2023-02-03T18:28:18.851Z,12.90
2023-02-03T18:33:21.663Z,8.27
2023-02-03T18:38:28.440Z,6.72
2023-02-03T18:43:32.461Z,5.20
2023-02-03T18:48:38.229Z,4.55
2023-02-03T18:53:41.882Z,4.40
2023-02-03T18:58:48.639Z,5.20
2023-02-03T19:03:53.684Z,4.00
2023-02-03T19:08:56.819Z,4.55
2023-02-03T19:13:59.430Z,4.93
2023-02-03T19:19:02.203Z,4.05
2023-02-03T19:24:07.436Z,4.20
2023-02-03T19:29:10.362Z,4.18
2023-02-03T19:34:22.264Z,4.32
2023-02-03T19:39:24.987Z,4.93
2023-02-03T19:44:27.746Z,5.35
2023-02-03T19:49:30.450Z,5.53
2023-02-03T19:54:33.117Z,4.60
2023-02-03T19:59:36.834Z,4.95
2023-02-03T20:04:39.466Z,4.15
2023-02-03T20:09:42.368Z,12.20
2023-02-03T20:14:45.105Z,6.53
2023-02-03T20:19:53.036Z,3.97
2023-02-03T20:24:58.227Z,4.00
2023-02-03T20:30:01.021Z,3.58
2023-02-03T20:35:06.626Z,3.72
2023-02-03T20:40:16.876Z,3.95
2023-02-03T20:45:21.726Z,3.78
2023-02-03T20:50:37.293Z,4.40
2023-02-03T20:55:44.632Z,4.10
2023-02-03T21:00:48.428Z,4.65
2023-02-03T21:05:51.089Z,4.13
2023-02-03T21:10:53.782Z,4.53
2023-02-03T21:16:04.619Z,3.42
2023-02-03T21:21:24.983Z,3.70
2023-02-03T21:26:37.516Z,4.00
2023-02-03T21:31:41.035Z,4.00
2023-02-03T21:36:43.683Z,4.13
2023-02-03T21:41:46.217Z,4.18
2023-02-03T21:46:48.814Z,4.40
2023-02-03T21:51:51.554Z,4.30
2023-02-03T21:56:58.264Z,4.13
2023-02-03T22:02:02.578Z,6.05
2023-02-03T22:07:16.624Z,6.50
2023-02-03T22:12:19.253Z,6.80
2023-02-03T22:17:21.912Z,6.20
2023-02-03T22:22:24.564Z,5.70
2023-02-03T22:27:27.187Z,5.35
2023-02-03T22:32:29.731Z,5.88
2023-02-03T22:37:33.499Z,5.05
2023-02-03T22:42:39.468Z,6.32
2023-02-03T22:47:42.876Z,6.40
2023-02-03T22:52:45.518Z,5.95
2023-02-03T22:57:50.039Z,5.30
2023-02-03T23:02:53.129Z,5.18
2023-02-03T23:07:56.333Z,5.50
2023-02-03T23:13:00.910Z,5.03
2023-02-03T23:18:03.793Z,5.30
2023-02-03T23:23:07.129Z,5.35
2023-02-03T23:28:09.939Z,6.40
2023-02-03T23:33:12.525Z,5.47
2023-02-03T23:38:16.595Z,5.78
2023-02-03T23:43:19.161Z,4.75
2023-02-03T23:48:22.146Z,5.07
2023-02-03T23:53:25.034Z,7.32
2023-02-03T23:58:31.053Z,5.68
